Time;durP1;ratioP1;P1;durP2;ratioP2;P2;SDS_P1;SDS_P2;PMS_P1;PMS_P2;Temp;Humidity;BMP_temperature;BMP_pressure;BME280_temperature;BME280_humidity;BME280_pressure;Samples;Min_cycle;Max_cycle;Signal;HPM_P1;HPM_P2
2023/05/04 00:02:00;;;;;;;10.95;5.50;;;7.30;99.90;;;;;;5092186;28;20044;-58
2023/05/04 00:04:25;;;;;;;10.55;5.80;;;7.20;99.90;;;;;;5092020;28;20043;-57
2023/05/04 00:06:51;;;;;;;10.63;5.82;;;7.10;99.90;;;;;;5090890;28;20048;-57
2023/05/04 00:09:17;;;;;;;13.98;6.03;;;7.10;99.90;;;;;;5092282;28;20043;-57
2023/05/04 00:11:43;;;;;;;12.05;6.15;;;7.10;99.90;;;;;;5091086;28;20052;-58
2023/05/04 00:14:08;;;;;;;9.45;6.25;;;7.10;99.90;;;;;;5091161;28;20397;-58
2023/05/04 00:16:35;;;;;;;8.40;5.90;;;7.10;99.90;;;;;;5092001;28;20052;-58
2023/05/04 00:19:00;;;;;;;8.85;6.10;;;7.00;99.90;;;;;;5092214;28;20051;-58
2023/05/04 00:21:26;;;;;;;13.35;7.05;;;7.00;99.90;;;;;;5092325;28;20390;-58
2023/05/04 00:23:52;;;;;;;9.82;6.43;;;7.00;99.90;;;;;;5092383;28;20028;-58
2023/05/04 00:26:18;;;;;;;13.18;6.45;;;7.00;99.90;;;;;;5092161;28;20069;-57
2023/05/04 00:28:43;;;;;;;16.42;6.60;;;7.00;99.90;;;;;;5093220;28;20596;-57
2023/05/04 00:31:09;;;;;;;11.32;6.00;;;6.90;99.90;;;;;;5094102;28;20382;-57
2023/05/04 00:33:35;;;;;;;13.57;6.43;;;6.90;99.90;;;;;;5095850;28;20039;-57
2023/05/04 00:36:04;;;;;;;13.70;6.70;;;6.90;99.90;;;;;;5095906;28;20129;-56
2023/05/04 00:38:29;;;;;;;10.48;5.80;;;6.90;99.90;;;;;;5095758;28;20040;-57
2023/05/04 00:40:57;;;;;;;8.68;5.82;;;6.90;99.90;;;;;;5095893;28;20039;-57
2023/05/04 00:43:24;;;;;;;12.35;5.40;;;6.90;99.90;;;;;;5096047;28;20119;-57
2023/05/04 00:45:50;;;;;;;12.55;5.80;;;6.90;99.90;;;;;;5095560;28;20044;-58
2023/05/04 00:48:16;;;;;;;12.77;5.95;;;6.80;99.90;;;;;;5095671;28;20075;-58
2023/05/04 00:50:42;;;;;;;12.93;6.30;;;6.90;99.90;;;;;;5096006;28;20083;-57
2023/05/04 00:53:10;;;;;;;8.48;5.63;;;6.80;99.90;;;;;;5095504;28;20047;-58
2023/05/04 00:55:38;;;;;;;12.65;5.72;;;6.80;99.90;;;;;;5095709;28;20072;-58
2023/05/04 00:58:05;;;;;;;12.52;5.78;;;6.90;99.90;;;;;;5095789;28;20085;-57
2023/05/04 01:00:31;;;;;;;14.85;5.40;;;6.80;99.90;;;;;;5095439;28;20040;-58
2023/05/04 01:02:57;;;;;;;9.95;5.88;;;6.80;99.90;;;;;;5095729;28;20081;-57
2023/05/04 01:05:25;;;;;;;11.45;5.50;;;6.80;99.90;;;;;;5077302;28;20081;-58
2023/05/04 01:08:03;;;;;;;14.70;6.50;;;6.80;99.90;;;;;;5095343;28;20048;-57
2023/05/04 01:10:55;;;;;;;10.60;5.70;;;6.80;99.90;;;;;;5095179;28;20043;-58
2023/05/04 01:13:21;;;;;;;10.07;4.90;;;6.70;99.90;;;;;;5094134;28;20036;-56
2023/05/04 01:15:48;;;;;;;12.70;6.53;;;6.70;99.90;;;;;;5093920;28;20051;-57
2023/05/04 01:18:15;;;;;;;8.50;5.47;;;6.80;99.90;;;;;;5094863;28;20509;-57
2023/05/04 01:20:41;;;;;;;13.82;6.80;;;6.70;99.90;;;;;;5095278;28;20044;-57
2023/05/04 01:23:08;;;;;;;12.38;6.30;;;6.70;99.90;;;;;;5094866;28;20043;-57
2023/05/04 01:25:47;;;;;;;9.38;6.63;;;6.70;99.90;;;;;;5093635;28;20079;-57
2023/05/04 01:28:19;;;;;;;13.18;6.70;;;6.70;99.90;;;;;;5095269;28;20047;-58
2023/05/04 01:30:52;;;;;;;12.27;6.25;;;6.70;99.90;;;;;;5094964;28;20123;-57
2023/05/04 01:33:19;;;;;;;10.70;6.47;;;6.70;99.90;;;;;;5094680;28;20051;-58
2023/05/04 01:35:45;;;;;;;11.73;5.75;;;6.70;99.90;;;;;;5094547;28;20070;-57
2023/05/04 01:38:11;;;;;;;17.55;6.53;;;6.60;99.90;;;;;;5094701;28;20037;-57
2023/05/04 01:40:37;;;;;;;13.18;7.22;;;6.60;99.90;;;;;;5094079;28;20390;-57
2023/05/04 01:43:02;;;;;;;10.90;6.13;;;6.60;99.90;;;;;;5094847;28;20043;-57
2023/05/04 01:45:28;;;;;;;7.05;5.68;;;6.60;99.90;;;;;;5094489;28;20043;-57
2023/05/04 01:47:54;;;;;;;13.35;5.50;;;6.60;99.90;;;;;;5093587;28;20067;-57
2023/05/04 01:50:19;;;;;;;8.90;5.72;;;6.60;99.90;;;;;;5094566;28;20067;-58
2023/05/04 01:52:45;;;;;;;12.05;5.93;;;6.60;99.90;;;;;;5094465;28;20075;-58
2023/05/04 01:55:10;;;;;;;11.75;6.57;;;6.60;99.90;;;;;;5094514;28;20036;-58
2023/05/04 01:57:36;;;;;;;10.77;6.13;;;6.60;99.90;;;;;;5093285;28;20457;-57
2023/05/04 02:00:02;;;;;;;15.00;6.10;;;6.60;99.90;;;;;;5094451;28;20077;-57
2023/05/04 02:02:28;;;;;;;10.23;5.40;;;6.60;99.90;;;;;;5094455;28;20059;-57
2023/05/04 02:04:53;;;;;;;10.40;5.38;;;6.60;99.90;;;;;;5094742;28;20040;-57
2023/05/04 02:07:19;;;;;;;15.40;6.30;;;6.60;99.90;;;;;;5094213;28;20097;-57
2023/05/04 02:09:45;;;;;;;12.40;5.35;;;6.60;99.90;;;;;;5094309;28;20032;-58
2023/05/04 02:12:10;;;;;;;12.98;6.18;;;6.60;99.90;;;;;;5094166;28;20040;-57
2023/05/04 02:14:36;;;;;;;12.60;6.20;;;6.60;99.90;;;;;;5093955;28;20063;-57
2023/05/04 02:17:01;;;;;;;10.65;6.10;;;6.50;99.90;;;;;;5092829;28;20048;-57
2023/05/04 02:19:27;;;;;;;13.68;6.13;;;6.60;99.90;;;;;;5093931;28;20040;-57
2023/05/04 02:21:53;;;;;;;7.22;5.63;;;6.60;99.90;;;;;;5094110;28;20040;-57
2023/05/04 02:24:18;;;;;;;11.35;5.85;;;6.60;99.90;;;;;;5094236;28;20044;-58
2023/05/04 02:26:44;;;;;;;12.15;6.47;;;6.50;99.90;;;;;;5093937;28;20372;-57
2023/05/04 02:29:10;;;;;;;13.73;5.90;;;6.50;99.90;;;;;;5093896;28;20497;-57
2023/05/04 02:31:35;;;;;;;11.55;5.75;;;6.50;99.90;;;;;;5093625;28;20040;-57
2023/05/04 02:34:01;;;;;;;11.77;6.28;;;6.50;99.90;;;;;;5093573;28;20047;-57
2023/05/04 02:36:27;;;;;;;12.27;6.85;;;6.50;99.90;;;;;;5093396;28;20048;-57
2023/05/04 02:38:54;;;;;;;10.98;6.50;;;6.50;99.90;;;;;;5092201;28;20052;-57
2023/05/04 02:41:19;;;;;;;12.18;6.50;;;6.50;99.90;;;;;;5093512;28;20430;-57
2023/05/04 02:43:45;;;;;;;12.07;7.35;;;6.50;99.90;;;;;;5093421;28;20119;-57
2023/05/04 02:46:11;;;;;;;10.50;6.63;;;6.50;99.90;;;;;;5093595;28;20044;-57
2023/05/04 02:48:37;;;;;;;13.10;6.90;;;6.50;99.90;;;;;;5093246;28;20466;-57
2023/05/04 02:51:03;;;;;;;15.45;6.85;;;6.50;99.90;;;;;;5093320;28;20419;-57
2023/05/04 02:53:28;;;;;;;10.95;6.45;;;6.50;99.90;;;;;;5091273;28;20047;-57
2023/05/04 02:55:54;;;;;;;11.88;6.60;;;6.40;99.90;;;;;;5093302;28;20047;-57
2023/05/04 02:58:20;;;;;;;10.40;6.63;;;6.40;99.90;;;;;;5093270;28;20078;-57
2023/05/04 03:00:45;;;;;;;12.45;6.40;;;6.40;99.90;;;;;;5092299;28;20036;-58
2023/05/04 03:03:11;;;;;;;12.98;6.50;;;6.50;99.90;;;;;;5093030;28;20063;-57
2023/05/04 03:05:37;;;;;;;13.32;7.07;;;6.50;99.90;;;;;;5092055;28;20047;-58
2023/05/04 03:08:03;;;;;;;14.60;7.10;;;6.50;99.90;;;;;;5093510;28;20054;-57
2023/05/04 03:10:28;;;;;;;18.73;6.75;;;6.50;99.90;;;;;;5093290;28;20447;-57
2023/05/04 03:12:54;;;;;;;12.75;6.68;;;6.50;99.90;;;;;;5093075;28;20043;-57
2023/05/04 03:15:20;;;;;;;14.80;7.60;;;6.50;99.90;;;;;;5092942;28;20036;-58
2023/05/04 03:17:46;;;;;;;9.98;6.35;;;6.50;99.90;;;;;;5092891;28;20048;-57
2023/05/04 03:20:12;;;;;;;13.13;7.28;;;6.50;99.90;;;;;;5092893;28;20032;-57
2023/05/04 03:22:37;;;;;;;12.70;6.93;;;6.50;99.90;;;;;;5091894;28;20051;-58
2023/05/04 03:25:04;;;;;;;13.07;7.35;;;6.50;99.90;;;;;;5093197;28;20044;-57
2023/05/04 03:27:30;;;;;;;12.30;6.88;;;6.50;99.90;;;;;;5093328;28;20147;-58
2023/05/04 03:29:55;;;;;;;11.60;6.97;;;6.50;99.90;;;;;;5092770;28;20065;-57
2023/05/04 03:32:21;;;;;;;10.55;6.53;;;6.50;99.90;;;;;;5090805;28;20028;-58
2023/05/04 03:34:47;;;;;;;14.60;7.38;;;6.50;99.90;;;;;;5074857;28;20440;-58
2023/05/04 03:37:12;;;;;;;13.27;7.70;;;6.50;99.90;;;;;;5092800;28;20032;-58
2023/05/04 03:39:38;;;;;;;13.18;6.68;;;6.50;99.90;;;;;;5093008;28;20028;-57
2023/05/04 03:42:04;;;;;;;13.63;5.93;;;6.50;99.90;;;;;;5092583;28;20028;-57
2023/05/04 03:44:30;;;;;;;11.50;6.53;;;6.50;99.90;;;;;;5092509;28;20036;-57
2023/05/04 03:46:55;;;;;;;12.70;6.93;;;6.60;99.90;;;;;;5092224;28;20042;-58
2023/05/04 03:49:21;;;;;;;10.23;6.60;;;6.60;99.90;;;;;;5092556;28;20044;-57
2023/05/04 03:51:46;;;;;;;10.52;6.72;;;6.50;99.90;;;;;;5092460;28;20043;-58
2023/05/04 03:54:12;;;;;;;11.02;6.47;;;6.60;99.90;;;;;;5092866;28;20458;-57
2023/05/04 03:56:38;;;;;;;9.55;6.70;;;6.60;99.90;;;;;;5092324;28;20040;-57
2023/05/04 03:59:03;;;;;;;12.00;6.55;;;6.60;99.90;;;;;;5091670;28;20067;-57
2023/05/04 04:01:29;;;;;;;13.55;7.13;;;6.60;99.90;;;;;;5092463;28;20500;-57
2023/05/04 04:03:55;;;;;;;9.50;6.82;;;6.60;99.90;;;;;;5093601;28;20123;-57
2023/05/04 04:06:22;;;;;;;13.27;7.05;;;6.60;99.90;;;;;;5096934;28;20044;-57
2023/05/04 04:08:47;;;;;;;13.60;6.88;;;6.60;99.90;;;;;;5096845;28;20047;-57
2023/05/04 04:11:13;;;;;;;15.25;7.65;;;6.70;99.90;;;;;;5096536;28;20036;-57
2023/05/04 04:13:39;;;;;;;13.70;7.30;;;6.70;99.90;;;;;;5096579;28;20040;-58
2023/05/04 04:16:05;;;;;;;20.23;7.18;;;6.60;99.90;;;;;;5096064;28;20080;-58
2023/05/04 04:18:31;;;;;;;14.25;6.85;;;6.70;99.90;;;;;;5095833;28;20495;-58
2023/05/04 04:20:57;;;;;;;11.82;6.60;;;6.70;99.90;;;;;;5096337;28;20039;-58
2023/05/04 04:23:23;;;;;;;13.10;6.95;;;6.70;99.90;;;;;;5096368;28;20067;-58
2023/05/04 04:25:49;;;;;;;14.50;7.20;;;6.70;99.90;;;;;;5095980;28;20375;-58
2023/05/04 04:28:15;;;;;;;12.65;6.40;;;6.10;99.90;;;;;;5094711;28;20040;-58
2023/05/04 04:30:41;;;;;;;13.40;6.78;;;6.70;99.90;;;;;;5096003;28;20051;-58
2023/05/04 04:33:07;;;;;;;14.30;6.90;;;6.80;99.90;;;;;;5095699;28;20113;-58
2023/05/04 04:35:33;;;;;;;11.85;7.38;;;6.80;99.90;;;;;;5095657;28;20598;-58
2023/05/04 04:37:59;;;;;;;13.15;7.85;;;6.80;99.90;;;;;;5094466;28;20044;-58
2023/05/04 04:40:25;;;;;;;15.65;7.47;;;6.80;99.90;;;;;;5095766;28;20044;-58
2023/05/04 04:42:51;;;;;;;15.45;7.72;;;6.80;99.90;;;;;;5094188;28;20046;-58
2023/05/04 04:45:17;;;;;;;11.48;7.43;;;6.80;99.90;;;;;;5095693;28;20047;-58
2023/05/04 04:47:44;;;;;;;10.13;7.25;;;6.80;99.90;;;;;;5094502;28;20448;-57
2023/05/04 04:50:10;;;;;;;12.68;7.40;;;6.80;99.90;;;;;;5095717;28;20115;-57
2023/05/04 04:52:36;;;;;;;13.95;7.80;;;6.80;99.90;;;;;;5094461;28;20062;-58
2023/05/04 04:55:03;;;;;;;15.20;7.93;;;6.80;99.90;;;;;;5095406;28;20063;-57
2023/05/04 04:57:29;;;;;;;12.10;7.15;;;6.80;99.90;;;;;;5095511;28;20035;-57
2023/05/04 04:59:56;;;;;;;13.90;7.78;;;6.80;99.90;;;;;;5095768;28;20040;-57
2023/05/04 05:02:21;;;;;;;14.30;8.18;;;6.80;99.90;;;;;;5095483;28;20519;-57
2023/05/04 05:04:47;;;;;;;16.27;8.73;;;6.80;99.90;;;;;;5095487;28;20071;-57
2023/05/04 05:07:13;;;;;;;14.55;8.00;;;6.80;99.90;;;;;;5093823;28;20486;-58
2023/05/04 05:09:39;;;;;;;11.88;7.35;;;6.90;99.90;;;;;;5093823;28;20047;-57
2023/05/04 05:12:05;;;;;;;12.10;7.05;;;6.90;99.90;;;;;;5095064;28;20043;-57
2023/05/04 05:14:30;;;;;;;13.40;7.90;;;6.90;99.90;;;;;;5094856;28;20059;-58
2023/05/04 05:16:57;;;;;;;11.15;7.50;;;7.00;99.90;;;;;;5093959;28;20410;-57
2023/05/04 05:19:23;;;;;;;14.20;7.40;;;7.00;99.90;;;;;;5093734;28;20044;-58
2023/05/04 05:21:48;;;;;;;10.85;7.25;;;7.10;99.90;;;;;;5093475;28;20043;-57
2023/05/04 05:24:14;;;;;;;14.13;7.38;;;7.10;99.90;;;;;;5094902;28;20036;-58
2023/05/04 05:26:41;;;;;;;15.43;7.15;;;7.10;99.90;;;;;;5094635;28;20089;-58
2023/05/04 05:29:07;;;;;;;11.60;6.68;;;7.20;99.90;;;;;;5094907;28;20055;-57
2023/05/04 05:31:32;;;;;;;12.00;7.00;;;7.20;99.90;;;;;;5094921;28;20048;-57
2023/05/04 05:33:58;;;;;;;14.90;7.75;;;7.40;99.90;;;;;;5094941;28;20067;-57
2023/05/04 05:36:24;;;;;;;12.80;6.95;;;7.30;99.90;;;;;;5093431;28;20478;-57
2023/05/04 05:38:51;;;;;;;13.65;7.50;;;7.30;99.90;;;;;;5093651;28;20048;-57
2023/05/04 05:41:16;;;;;;;15.80;7.95;;;7.40;99.90;;;;;;5094536;28;20050;-56
2023/05/04 05:43:42;;;;;;;13.55;6.88;;;7.40;99.90;;;;;;5094629;28;20036;-57
2023/05/04 05:46:08;;;;;;;16.33;7.20;;;7.50;99.90;;;;;;5094179;28;20097;-57
2023/05/04 05:48:33;;;;;;;14.05;7.43;;;7.50;99.90;;;;;;5094859;28;20405;-57
2023/05/04 05:50:59;;;;;;;13.38;8.02;;;7.60;99.90;;;;;;5094450;28;20040;-58
2023/05/04 05:53:25;;;;;;;13.57;7.55;;;7.70;99.90;;;;;;5093302;28;20040;-57
2023/05/04 05:55:50;;;;;;;18.33;7.38;;;7.70;99.90;;;;;;5094018;28;20054;-57
2023/05/04 05:58:16;;;;;;;13.93;7.15;;;7.80;99.90;;;;;;5094122;28;20040;-57
2023/05/04 06:00:42;;;;;;;13.15;8.40;;;7.80;99.90;;;;;;5093135;28;20067;-57
2023/05/04 06:03:07;;;;;;;12.90;7.20;;;7.90;99.90;;;;;;5094464;28;20501;-57
2023/05/04 06:05:33;;;;;;;16.40;7.70;;;8.00;99.90;;;;;;5094225;28;20036;-57
2023/05/04 06:07:59;;;;;;;15.10;7.43;;;8.00;99.90;;;;;;5093922;28;20134;-57
2023/05/04 06:10:25;;;;;;;15.55;8.00;;;8.10;99.90;;;;;;5093786;28;20618;-57
2023/05/04 06:12:51;;;;;;;15.55;7.72;;;8.20;99.90;;;;;;5093966;28;20101;-58
2023/05/04 06:15:17;;;;;;;13.77;6.95;;;8.30;99.90;;;;;;5093810;28;20048;-58
2023/05/04 06:17:43;;;;;;;17.50;7.20;;;8.30;99.90;;;;;;5092388;28;20048;-58
2023/05/04 06:20:08;;;;;;;13.13;7.38;;;8.50;99.90;;;;;;5092574;28;20122;-57
2023/05/04 06:22:34;;;;;;;16.08;7.40;;;8.70;99.90;;;;;;5093961;28;20043;-57
2023/05/04 06:25:00;;;;;;;16.08;6.90;;;8.90;99.90;;;;;;5093679;28;20036;-57
2023/05/04 06:27:27;;;;;;;12.15;7.80;;;9.00;99.90;;;;;;5093400;28;20482;-58
2023/05/04 06:29:53;;;;;;;10.50;6.63;;;9.20;99.90;;;;;;5093592;28;20043;-58
2023/05/04 06:32:19;;;;;;;12.70;6.75;;;9.30;99.90;;;;;;5093735;28;20036;-57
2023/05/04 06:34:44;;;;;;;19.95;7.10;;;9.30;99.90;;;;;;5093310;28;20864;-58
2023/05/04 06:37:10;;;;;;;14.05;8.18;;;9.40;99.90;;;;;;5093157;28;20085;-57
2023/05/04 06:39:36;;;;;;;14.15;6.63;;;9.50;99.90;;;;;;5092354;28;20492;-57
2023/05/04 06:42:02;;;;;;;14.45;6.85;;;9.60;99.90;;;;;;5088798;28;20490;-56
2023/05/04 06:44:28;;;;;;;14.77;7.68;;;9.70;99.90;;;;;;5079029;28;20073;-56
2023/05/04 06:46:53;;;;;;;13.60;6.97;;;9.70;99.90;;;;;;5073198;28;20040;-56
2023/05/04 06:49:19;;;;;;;12.80;7.38;;;9.80;99.90;;;;;;5077505;28;20045;-56
2023/05/04 06:51:45;;;;;;;15.60;6.72;;;9.80;99.90;;;;;;5092472;28;20040;-57
2023/05/04 06:54:11;;;;;;;10.93;6.22;;;9.90;99.90;;;;;;5093013;28;20048;-57
2023/05/04 06:56:38;;;;;;;10.23;6.70;;;10.10;99.90;;;;;;5091398;28;20448;-57
2023/05/04 06:59:04;;;;;;;11.38;6.32;;;10.30;99.90;;;;;;5085995;28;20040;-57
2023/05/04 07:01:30;;;;;;;15.77;5.85;;;10.20;99.90;;;;;;5093484;28;20046;-57
2023/05/04 07:03:57;;;;;;;11.73;6.00;;;10.30;99.90;;;;;;5093240;28;20032;-57
2023/05/04 07:06:25;;;;;;;10.18;5.40;;;10.40;99.90;;;;;;5093093;28;20035;-57
2023/05/04 07:08:51;;;;;;;16.75;6.93;;;10.50;99.90;;;;;;5092566;28;20385;-57
2023/05/04 07:11:17;;;;;;;11.98;5.63;;;10.70;99.90;;;;;;5091777;28;20052;-57
2023/05/04 07:13:43;;;;;;;12.90;6.68;;;11.00;99.90;;;;;;5079278;28;20072;-57
2023/05/04 07:16:08;;;;;;;12.98;6.00;;;11.20;99.90;;;;;;5092811;28;20489;-56
2023/05/04 07:18:34;;;;;;;13.32;5.85;;;11.50;99.90;;;;;;5090185;28;20056;-57
2023/05/04 07:21:00;;;;;;;13.00;6.32;;;11.50;99.90;;;;;;5090855;28;20034;-57
2023/05/04 07:23:26;;;;;;;13.07;6.25;;;11.60;99.90;;;;;;5096059;28;20105;-57
2023/05/04 07:25:52;;;;;;;12.23;5.88;;;11.70;99.90;;;;;;5095319;28;20154;-57
2023/05/04 07:28:17;;;;;;;10.88;5.57;;;11.90;99.90;;;;;;5093782;28;20481;-57
2023/05/04 07:30:43;;;;;;;14.43;5.90;;;11.90;99.90;;;;;;5092613;28;20071;-57
2023/05/04 07:33:09;;;;;;;11.27;5.63;;;12.10;99.90;;;;;;5111575;28;20050;-58
2023/05/04 07:35:35;;;;;;;11.70;5.60;;;12.10;99.90;;;;;;5104948;28;20071;-58
2023/05/04 07:38:01;;;;;;;16.40;6.28;;;12.20;99.90;;;;;;5091237;28;20071;-57
2023/05/04 07:40:27;;;;;;;14.15;6.57;;;12.10;99.90;;;;;;5111733;28;20063;-58
2023/05/04 07:42:53;;;;;;;10.88;5.80;;;12.20;99.90;;;;;;5112600;28;20063;-58
2023/05/04 07:45:18;;;;;;;14.80;5.80;;;12.40;99.90;;;;;;5112421;28;20118;-57
2023/05/04 07:47:44;;;;;;;16.02;6.35;;;12.50;99.90;;;;;;5112272;28;20036;-58
2023/05/04 07:50:10;;;;;;;11.40;6.40;;;12.70;99.90;;;;;;5112575;28;20047;-58
2023/05/04 07:52:36;;;;;;;9.88;5.65;;;12.60;99.90;;;;;;5112411;28;20042;-58
2023/05/04 07:55:02;;;;;;;12.18;5.63;;;12.70;99.90;;;;;;5112252;28;20039;-58
2023/05/04 07:57:27;;;;;;;14.35;5.18;;;12.60;99.90;;;;;;5112583;28;20043;-58
2023/05/04 07:59:54;;;;;;;11.70;5.53;;;12.80;99.90;;;;;;5112470;28;20028;-58
2023/05/04 08:02:20;;;;;;;12.40;5.40;;;13.00;99.90;;;;;;5112446;28;20032;-58
2023/05/04 08:04:46;;;;;;;14.32;5.95;;;13.10;99.90;;;;;;5112500;28;20035;-58
2023/05/04 08:07:14;;;;;;;10.77;6.35;;;13.00;99.90;;;;;;5112453;28;20035;-58
2023/05/04 08:09:39;;;;;;;11.23;5.47;;;13.30;99.90;;;;;;5112376;28;20039;-58
2023/05/04 08:12:06;;;;;;;9.82;5.85;;;13.40;99.90;;;;;;5112528;28;20044;-57
2023/05/04 08:14:32;;;;;;;16.45;6.45;;;13.70;99.90;;;;;;5112618;28;20078;-58
2023/05/04 08:16:58;;;;;;;9.43;5.72;;;13.70;99.90;;;;;;5112477;28;20052;-58
2023/05/04 08:19:24;;;;;;;10.82;5.47;;;13.90;99.90;;;;;;5111130;28;20045;-58
2023/05/04 08:21:49;;;;;;;8.52;5.97;;;14.20;99.90;;;;;;5112216;28;20062;-58
2023/05/04 08:24:17;;;;;;;8.15;5.07;;;14.20;99.90;;;;;;5112046;28;20039;-58
2023/05/04 08:26:43;;;;;;;9.50;6.00;;;14.50;99.90;;;;;;5111084;28;20447;-58
2023/05/04 08:29:09;;;;;;;10.82;6.50;;;14.50;99.90;;;;;;5111944;28;20086;-58
2023/05/04 08:31:35;;;;;;;10.32;5.63;;;14.50;99.90;;;;;;5112127;28;20044;-58
2023/05/04 08:34:02;;;;;;;11.85;5.35;;;14.80;99.90;;;;;;5112288;28;20035;-58
2023/05/04 08:36:29;;;;;;;10.93;5.47;;;14.80;99.90;;;;;;5112002;28;20052;-58
2023/05/04 08:38:55;;;;;;;11.15;5.55;;;14.70;99.90;;;;;;5111816;28;20456;-58
2023/05/04 08:41:22;;;;;;;12.85;5.90;;;14.70;99.90;;;;;;5112321;28;20071;-58
2023/05/04 08:43:48;;;;;;;17.48;5.97;;;14.70;99.90;;;;;;5112233;28;20435;-58
2023/05/04 08:46:16;;;;;;;10.85;5.35;;;14.80;99.90;;;;;;5111900;28;20118;-58
2023/05/04 08:48:45;;;;;;;10.65;5.55;;;14.70;99.90;;;;;;5111960;28;20075;-58
2023/05/04 08:51:11;;;;;;;11.75;4.95;;;15.10;99.90;;;;;;5113155;28;20111;-58
2023/05/04 08:53:41;;;;;;;11.05;5.43;;;15.40;99.90;;;;;;5115325;28;20065;-58
2023/05/04 08:56:09;;;;;;;13.75;5.30;;;15.50;99.90;;;;;;5115300;28;20482;-58
2023/05/04 08:58:47;;;;;;;13.30;5.30;;;15.80;99.90;;;;;;5115880;28;20040;-58
2023/05/04 09:01:15;;;;;;;11.63;5.32;;;16.00;99.90;;;;;;5114042;28;20493;-58
2023/05/04 09:03:43;;;;;;;9.93;5.43;;;16.30;99.90;;;;;;5113926;28;20461;-59
2023/05/04 09:06:09;;;;;;;8.77;4.63;;;16.40;99.90;;;;;;5113851;28;20370;-58
2023/05/04 09:08:35;;;;;;;13.10;4.85;;;16.50;99.90;;;;;;5115270;27;20179;-59
2023/05/04 09:11:01;;;;;;;10.13;4.97;;;16.50;99.90;;;;;;5114989;28;20491;-58
2023/05/04 09:13:27;;;;;;;8.73;4.60;;;16.60;99.90;;;;;;5113844;28;20043;-59
2023/05/04 09:15:57;;;;;;;10.38;4.53;;;16.80;99.90;;;;;;5113869;28;20048;-59
2023/05/04 09:18:23;;;;;;;12.60;4.07;;;16.60;99.90;;;;;;5114882;28;20048;-58
2023/05/04 09:20:49;;;;;;;8.43;4.20;;;16.60;99.90;;;;;;5115084;28;20043;-58
2023/05/04 09:23:16;;;;;;;9.82;4.40;;;16.70;99.90;;;;;;5114698;28;20049;-59
2023/05/04 09:25:49;;;;;;;9.60;4.75;;;16.90;99.90;;;;;;5095247;27;20032;-59
2023/05/04 09:28:16;;;;;;;12.95;4.95;;;16.90;99.90;;;;;;5092831;28;20052;-59
2023/05/04 09:30:42;;;;;;;11.27;4.95;;;16.80;99.90;;;;;;5094376;28;20047;-59
2023/05/04 09:33:09;;;;;;;8.70;4.07;;;16.90;99.90;;;;;;5094377;28;20039;-59
2023/05/04 09:35:39;;;;;;;7.78;4.60;;;16.80;99.90;;;;;;5092987;28;20055;-59
2023/05/04 09:38:06;;;;;;;9.20;4.28;;;17.00;99.90;;;;;;5094384;28;20507;-59
2023/05/04 09:40:39;;;;;;;6.75;3.95;;;16.70;99.90;;;;;;5093983;28;20046;-59
2023/05/04 09:43:09;;;;;;;8.13;3.85;;;17.00;99.90;;;;;;5091282;28;20032;-59
2023/05/04 09:45:42;;;;;;;10.55;4.30;;;17.00;99.90;;;;;;5088650;28;20114;-58
2023/05/04 09:48:19;;;;;;;8.75;3.92;;;17.30;99.90;;;;;;5078771;28;20102;-59
2023/05/04 09:50:56;;;;;;;11.95;4.10;;;17.70;99.90;;;;;;5072854;28;20051;-59
2023/05/04 09:53:24;;;;;;;7.57;4.20;;;17.90;99.90;;;;;;5073881;28;20082;-59
2023/05/04 09:56:13;;;;;;;8.77;4.43;;;18.00;99.90;;;;;;5074543;28;20028;-59
2023/05/04 09:58:40;;;;;;;13.50;4.68;;;17.90;99.90;;;;;;5089268;28;20482;-58
2023/05/04 10:01:05;;;;;;;12.05;4.90;;;18.10;99.90;;;;;;5090784;28;20058;-59
2023/05/04 10:03:32;;;;;;;8.70;4.50;;;18.10;99.90;;;;;;5092662;28;20115;-59
2023/05/04 10:05:59;;;;;;;15.40;4.78;;;18.20;99.90;;;;;;5092287;28;20123;-59
2023/05/04 10:08:28;;;;;;;7.03;4.68;;;18.10;99.90;;;;;;5090546;28;20385;-59
2023/05/04 10:10:55;;;;;;;8.68;3.95;;;18.20;99.90;;;;;;5092856;28;20433;-59
2023/05/04 10:13:21;;;;;;;15.48;4.35;;;18.20;99.90;;;;;;5092968;28;20367;-58
2023/05/04 10:16:14;;;;;;;7.93;4.72;;;18.30;99.90;;;;;;5092608;28;20047;-58
2023/05/04 10:19:26;;;;;;;10.05;4.40;;;18.60;99.90;;;;;;5073448;28;20081;-59
2023/05/04 10:22:11;;;;;;;10.88;4.40;;;18.50;99.90;;;;;;5073334;28;20052;-58
2023/05/04 10:24:42;;;;;;;14.88;5.50;;;18.60;99.90;;;;;;5072131;28;20045;-58
2023/05/04 10:27:13;;;;;;;9.57;3.92;;;18.80;99.90;;;;;;5073568;28;20072;-59
2023/05/04 10:29:40;;;;;;;9.02;4.60;;;18.60;99.90;;;;;;5073616;28;20059;-58
2023/05/04 10:32:20;;;;;;;5.88;3.80;;;18.60;99.90;;;;;;5073635;28;20051;-58
2023/05/04 10:34:46;;;;;;;9.38;3.97;;;18.60;99.90;;;;;;5073549;28;20048;-59
2023/05/04 10:37:20;;;;;;;11.18;4.35;;;18.50;99.90;;;;;;5073277;28;20041;-59
2023/05/04 10:39:53;;;;;;;7.55;4.35;;;18.80;99.90;;;;;;5073212;28;20048;-58
2023/05/04 10:42:19;;;;;;;7.85;4.00;;;18.60;99.90;;;;;;5072939;28;20047;-59
2023/05/04 10:44:53;;;;;;;7.57;4.57;;;18.50;99.90;;;;;;5093280;28;20432;-58
2023/05/04 10:47:31;;;;;;;5.40;3.97;;;18.50;99.90;;;;;;5093584;28;20032;-58
2023/05/04 10:50:05;;;;;;;10.18;4.20;;;18.60;99.90;;;;;;5091881;28;20048;-58
2023/05/04 10:52:48;;;;;;;10.65;5.22;;;18.60;99.90;;;;;;5092158;28;20044;-58
2023/05/04 10:55:14;;;;;;;9.15;3.88;;;18.70;99.90;;;;;;5089432;28;20042;-58
2023/05/04 10:57:50;;;;;;;7.97;4.20;;;18.80;99.90;;;;;;5083720;28;20032;-58
2023/05/04 11:00:17;;;;;;;8.43;4.32;;;19.00;99.90;;;;;;5092743;28;20090;-58
2023/05/04 11:02:45;;;;;;;10.55;3.97;;;19.30;99.90;;;;;;5089794;28;20411;-59
2023/05/04 11:05:16;;;;;;;9.75;4.75;;;19.40;99.90;;;;;;5073982;28;20045;-59
2023/05/04 11:07:43;;;;;;;7.78;4.50;;;19.50;99.90;;;;;;5076479;28;20067;-58
2023/05/04 11:10:21;;;;;;;8.85;4.35;;;19.70;99.90;;;;;;5092937;28;20040;-58
2023/05/04 11:12:47;;;;;;;11.20;4.05;;;20.00;99.90;;;;;;5092353;28;20497;-59
2023/05/04 11:15:13;;;;;;;8.80;4.47;;;20.30;99.90;;;;;;5092373;28;20120;-59
2023/05/04 11:17:49;;;;;;;8.32;3.90;;;20.30;99.40;;;;;;5092553;28;20059;-59
2023/05/04 11:20:25;;;;;;;5.60;4.30;;;20.10;99.10;;;;;;5092781;28;20050;-59
2023/05/04 11:22:52;;;;;;;10.60;4.38;;;20.10;99.90;;;;;;5092672;28;20040;-59
2023/05/04 11:25:29;;;;;;;9.25;4.68;;;20.00;99.40;;;;;;5092775;28;20051;-59
2023/05/04 11:27:56;;;;;;;9.45;4.47;;;19.80;99.60;;;;;;5092448;28;20093;-60
2023/05/04 11:30:33;;;;;;;7.97;4.40;;;20.10;98.70;;;;;;5092400;28;20044;-59
2023/05/04 11:32:59;;;;;;;6.03;4.30;;;20.00;98.50;;;;;;5092471;28;20036;-59
2023/05/04 11:35:25;;;;;;;7.57;4.32;;;19.90;99.20;;;;;;5092233;28;20090;-59
2023/05/04 11:37:51;;;;;;;5.80;3.95;;;20.10;98.90;;;;;;5092347;28;20120;-59
2023/05/04 11:40:20;;;;;;;6.75;4.60;;;20.30;98.20;;;;;;5092064;28;20051;-60
2023/05/04 11:42:48;;;;;;;8.45;3.72;;;20.20;98.50;;;;;;5092390;28;20040;-59
2023/05/04 11:45:21;;;;;;;9.45;3.92;;;20.20;97.80;;;;;;5092008;28;20038;-59
2023/05/04 11:47:49;;;;;;;7.65;4.88;;;20.60;97.60;;;;;;5092058;28;20040;-59
2023/05/04 11:50:16;;;;;;;9.77;4.28;;;20.30;98.00;;;;;;5092236;28;20039;-59
2023/05/04 11:52:42;;;;;;;8.45;4.53;;;20.50;98.00;;;;;;5091867;28;20048;-58
2023/05/04 11:55:09;;;;;;;9.82;4.28;;;20.50;98.00;;;;;;5092150;28;20036;-59
2023/05/04 11:57:36;;;;;;;12.85;4.00;;;20.50;97.40;;;;;;5091815;28;20118;-58
2023/05/04 12:00:06;;;;;;;14.25;4.45;;;20.60;98.10;;;;;;5091986;28;20461;-59
2023/05/04 12:02:35;;;;;;;8.50;4.10;;;20.70;97.90;;;;;;5091623;28;20482;-59
2023/05/04 12:05:01;;;;;;;;;;;20.70;97.90;;;;;;5092303;28;20028;-59
2023/05/04 12:07:27;;;;;;;6.60;3.70;;;20.80;97.20;;;;;;5090394;28;20374;-59
2023/05/04 12:09:53;;;;;;;8.45;3.88;;;21.00;98.20;;;;;;5091847;28;20036;-59
2023/05/04 12:12:20;;;;;;;10.63;3.47;;;21.00;97.60;;;;;;5091652;28;20161;-59
2023/05/04 12:14:55;;;;;;;7.32;4.22;;;21.10;97.60;;;;;;5091630;28;20115;-59
2023/05/04 12:17:21;;;;;;;10.70;4.63;;;21.10;96.70;;;;;;5091631;28;20149;-59
2023/05/04 12:19:55;;;;;;;11.18;4.25;;;20.80;96.50;;;;;;5091820;28;20101;-59
2023/05/04 12:22:28;;;;;;;9.23;4.47;;;20.80;96.10;;;;;;5091866;28;20085;-59
2023/05/04 12:24:57;;;;;;;13.35;4.22;;;20.80;96.30;;;;;;5092940;28;20592;-59
2023/05/04 12:27:22;;;;;;;10.88;5.05;;;20.80;96.90;;;;;;5095511;28;20047;-59
2023/05/04 12:29:48;;;;;;;9.38;5.38;;;20.90;96.80;;;;;;5095348;28;20040;-59
2023/05/04 12:32:13;;;;;;;11.20;4.47;;;20.90;97.30;;;;;;5095358;28;20032;-59
2023/05/04 12:34:39;;;;;;;11.30;5.15;;;20.90;97.30;;;;;;5095496;28;20032;-59
2023/05/04 12:37:05;;;;;;;10.90;5.13;;;20.80;97.00;;;;;;5095248;28;20079;-60
2023/05/04 12:39:32;;;;;;;7.45;4.18;;;21.10;96.30;;;;;;5093765;28;20051;-59
2023/05/04 12:41:58;;;;;;;7.35;4.10;;;21.00;96.30;;;;;;5095320;28;20044;-58
2023/05/04 12:44:24;;;;;;;9.15;4.72;;;21.30;96.80;;;;;;5093807;28;20470;-59
2023/05/04 12:46:50;;;;;;;10.57;5.28;;;21.20;96.10;;;;;;5094999;28;20040;-59